Time;durP1;ratioP1;P1;durP2;ratioP2;P2;SDS_P1;SDS_P2;PMS_P1;PMS_P2;Temp;Humidity;BMP_temperature;BMP_pressure;BME280_temperature;BME280_humidity;BME280_pressure;Samples;Min_cycle;Max_cycle;Signal;HPM_P1;HPM_P2
2023/09/14 00:01:12;;;;;;;6.80;3.17;;;12.30;99.90;;;;;;5065040;28;20079;-72
2023/09/14 00:03:38;;;;;;;5.95;3.38;;;12.30;99.90;;;;;;5068470;28;20129;-72
2023/09/14 00:06:04;;;;;;;8.57;3.42;;;12.30;99.90;;;;;;5065819;28;20059;-72
2023/09/14 00:08:30;;;;;;;6.07;3.08;;;12.30;99.90;;;;;;5077883;28;21043;-73
2023/09/14 00:11:03;;;;;;;6.15;3.30;;;12.30;99.90;;;;;;5060311;28;20039;-72
2023/09/14 00:13:28;;;;;;;8.00;3.40;;;12.30;99.90;;;;;;5077586;28;20051;-72
2023/09/14 00:15:54;;;;;;;6.80;3.42;;;12.30;99.90;;;;;;5051552;28;20040;-73
2023/09/14 00:18:20;;;;;;;7.90;2.80;;;12.30;99.90;;;;;;5090621;28;20504;-73
2023/09/14 00:20:46;;;;;;;5.03;2.65;;;12.30;99.90;;;;;;5069461;28;20570;-73
2023/09/14 00:23:12;;;;;;;7.38;3.05;;;12.30;99.90;;;;;;5079251;28;20199;-73
2023/09/14 00:25:37;;;;;;;6.68;3.13;;;12.30;99.90;;;;;;5066412;28;20090;-73
2023/09/14 00:28:04;;;;;;;5.82;3.22;;;12.20;99.90;;;;;;5057896;28;20552;-73
2023/09/14 00:30:29;;;;;;;6.65;3.13;;;12.10;99.90;;;;;;5087147;28;20052;-73
2023/09/14 00:32:55;;;;;;;7.13;2.58;;;12.10;99.90;;;;;;5080200;28;20062;-73
2023/09/14 00:35:21;;;;;;;7.22;3.15;;;12.10;99.90;;;;;;5069246;28;20054;-73
2023/09/14 00:37:48;;;;;;;5.95;2.75;;;12.10;99.90;;;;;;5058906;28;20089;-73
2023/09/14 00:40:15;;;;;;;6.90;2.70;;;12.10;99.90;;;;;;5060706;28;20808;-73
2023/09/14 00:42:48;;;;;;;6.95;2.67;;;12.10;99.90;;;;;;5057465;28;20097;-73
2023/09/14 00:45:16;;;;;;;5.97;2.70;;;12.10;99.90;;;;;;5077981;28;20066;-73
2023/09/14 00:47:45;;;;;;;4.10;2.47;;;12.10;99.90;;;;;;5069031;28;20051;-73
2023/09/14 00:50:15;;;;;;;5.22;2.42;;;12.10;99.90;;;;;;5061827;28;20043;-73
2023/09/14 00:52:41;;;;;;;5.65;2.50;;;12.00;99.90;;;;;;5066413;28;20040;-73
2023/09/14 00:55:08;;;;;;;5.90;2.63;;;12.00;99.90;;;;;;5055841;28;20040;-73
2023/09/14 00:57:34;;;;;;;6.17;3.33;;;12.00;99.90;;;;;;5068692;28;20117;-73
2023/09/14 01:00:00;;;;;;;5.85;2.97;;;11.90;99.90;;;;;;5067152;28;20063;-72
2023/09/14 01:02:26;;;;;;;5.97;2.95;;;11.90;99.90;;;;;;5059169;28;20041;-73
2023/09/14 01:04:53;;;;;;;4.15;2.75;;;11.90;99.90;;;;;;5062872;28;20376;-72
2023/09/14 01:07:19;;;;;;;5.60;2.65;;;11.90;99.90;;;;;;5075735;28;20447;-73
2023/09/14 01:09:44;;;;;;;5.63;2.20;;;11.80;99.90;;;;;;5086581;28;20072;-73
2023/09/14 01:12:10;;;;;;;3.90;2.20;;;11.80;99.90;;;;;;5063564;28;20131;-73
2023/09/14 01:15:00;;;;;;;7.25;3.00;;;11.80;99.90;;;;;;5066157;28;20058;-72
2023/09/14 01:17:32;;;;;;;6.70;3.17;;;11.80;99.90;;;;;;5057608;28;20121;-73
2023/09/14 01:20:19;;;;;;;4.07;2.65;;;11.80;99.90;;;;;;5063892;28;20509;-73
2023/09/14 01:23:08;;;;;;;;;;;11.80;99.90;;;;;;5076835;28;20091;-73
2023/09/14 01:25:42;;;;;;;5.47;2.83;;;11.80;99.90;;;;;;5073671;28;19947;-73
2023/09/14 01:28:12;;;;;;;5.45;3.10;;;11.70;99.90;;;;;;5072277;28;20047;-73
2023/09/14 01:30:38;;;;;;;5.93;2.97;;;11.70;99.90;;;;;;5071075;28;20044;-72
2023/09/14 01:33:06;;;;;;;6.20;2.90;;;11.70;99.90;;;;;;5088567;28;20036;-72
2023/09/14 01:35:39;;;;;;;7.68;3.08;;;11.70;99.90;;;;;;5082450;28;20044;-73
2023/09/14 01:38:06;;;;;;;6.28;2.90;;;11.70;99.90;;;;;;5062749;28;20056;-72
2023/09/14 01:40:34;;;;;;;7.03;3.10;;;11.70;99.90;;;;;;5060433;28;20043;-73
2023/09/14 01:43:02;;;;;;;11.43;3.83;;;11.70;99.90;;;;;;5072538;28;20055;-73
2023/09/14 01:45:30;;;;;;;3.65;2.60;;;11.60;99.90;;;;;;5068984;28;20044;-73
2023/09/14 01:47:56;;;;;;;4.38;2.17;;;11.60;99.90;;;;;;5069746;28;20044;-73
2023/09/14 01:50:22;;;;;;;6.07;2.70;;;11.60;99.90;;;;;;5061406;28;20479;-73
2023/09/14 01:52:49;;;;;;;4.95;2.85;;;11.60;99.90;;;;;;5061782;28;20044;-72
2023/09/14 01:55:16;;;;;;;4.47;2.58;;;11.60;99.90;;;;;;5073387;28;20044;-72
2023/09/14 01:57:42;;;;;;;3.70;2.42;;;11.60;99.90;;;;;;5059882;28;20491;-72
2023/09/14 02:00:08;;;;;;;4.25;2.50;;;11.50;99.90;;;;;;5088414;28;20043;-73
2023/09/14 02:02:34;;;;;;;8.30;2.55;;;11.50;99.90;;;;;;5071011;28;20561;-73
2023/09/14 02:04:59;;;;;;;5.72;3.10;;;11.50;99.90;;;;;;5071786;28;20131;-73
2023/09/14 02:07:25;;;;;;;5.47;2.90;;;11.50;99.90;;;;;;5071843;28;20047;-73
2023/09/14 02:09:51;;;;;;;4.38;2.38;;;11.40;99.90;;;;;;5067447;28;20032;-73
2023/09/14 02:12:17;;;;;;;5.85;2.05;;;11.40;99.90;;;;;;5071243;28;20039;-73
2023/09/14 02:14:43;;;;;;;5.32;2.50;;;11.40;99.90;;;;;;5065239;28;20552;-72
2023/09/14 02:17:09;;;;;;;3.40;1.70;;;11.40;99.90;;;;;;5068367;28;20044;-72
2023/09/14 02:19:35;;;;;;;3.22;2.00;;;11.30;99.90;;;;;;5065787;28;20036;-72
2023/09/14 02:22:00;;;;;;;5.18;2.33;;;11.30;99.90;;;;;;5070105;28;20043;-72
2023/09/14 02:24:27;;;;;;;4.10;2.50;;;11.30;99.90;;;;;;5072410;28;20518;-72
2023/09/14 02:26:54;;;;;;;5.25;2.60;;;11.30;99.90;;;;;;5070264;28;20127;-72
2023/09/14 02:29:20;;;;;;;4.20;2.90;;;11.30;99.90;;;;;;5087743;28;20044;-72
2023/09/14 02:31:46;;;;;;;5.72;2.70;;;11.30;99.90;;;;;;5064644;28;20040;-72
2023/09/14 02:34:12;;;;;;;5.78;3.20;;;11.30;99.90;;;;;;5081325;28;20040;-72
2023/09/14 02:36:38;;;;;;;5.47;2.97;;;11.30;99.90;;;;;;5059810;28;20034;-72
2023/09/14 02:39:04;;;;;;;5.78;3.20;;;11.30;99.90;;;;;;5062738;28;20042;-72
2023/09/14 02:41:29;;;;;;;4.72;2.67;;;11.20;99.90;;;;;;5054501;28;20123;-72
2023/09/14 02:43:55;;;;;;;4.63;2.40;;;11.20;99.90;;;;;;5069067;28;21858;-72
2023/09/14 02:46:21;;;;;;;3.92;2.30;;;11.20;99.90;;;;;;5058713;28;20058;-72
2023/09/14 02:48:47;;;;;;;4.90;2.63;;;11.20;99.90;;;;;;5083417;28;20048;-71
2023/09/14 02:51:12;;;;;;;4.28;3.03;;;11.20;99.90;;;;;;5062248;28;22018;-72
2023/09/14 02:53:38;;;;;;;6.22;3.40;;;11.20;99.90;;;;;;5062816;28;20036;-72
2023/09/14 02:56:10;;;;;;;5.07;3.30;;;11.20;99.90;;;;;;5067949;28;20043;-72
2023/09/14 02:58:36;;;;;;;6.28;3.38;;;11.20;99.90;;;;;;5061371;28;20032;-72
2023/09/14 03:01:09;;;;;;;8.20;4.22;;;11.20;99.90;;;;;;5069813;28;20109;-72
2023/09/14 03:03:39;;;;;;;5.22;3.22;;;11.20;99.90;;;;;;5087615;28;20124;-72
2023/09/14 03:06:05;;;;;;;6.50;3.58;;;11.20;99.90;;;;;;5069103;28;20047;-72
2023/09/14 03:08:32;;;;;;;5.28;3.45;;;11.20;99.90;;;;;;5063352;28;20510;-72
2023/09/14 03:10:58;;;;;;;5.53;3.45;;;11.20;99.90;;;;;;5059116;28;20048;-72
2023/09/14 03:13:24;;;;;;;5.33;2.80;;;11.10;99.90;;;;;;5085255;28;20090;-72
2023/09/14 03:15:55;;;;;;;4.47;3.05;;;11.20;99.90;;;;;;5061546;28;20298;-72
2023/09/14 03:18:21;;;;;;;4.63;2.97;;;11.10;99.90;;;;;;5066645;28;20490;-72
2023/09/14 03:20:53;;;;;;;5.68;3.20;;;11.10;99.90;;;;;;5055344;28;20055;-72
2023/09/14 03:23:20;;;;;;;6.95;3.33;;;11.00;99.90;;;;;;5084653;28;20055;-71
2023/09/14 03:25:48;;;;;;;3.95;3.13;;;11.00;99.90;;;;;;5071420;28;20044;-72
2023/09/14 03:28:16;;;;;;;3.05;2.55;;;11.00;99.90;;;;;;5065262;28;20101;-72
2023/09/14 03:30:42;;;;;;;3.50;2.40;;;11.00;99.90;;;;;;5065844;28;20126;-72
2023/09/14 03:33:09;;;;;;;2.95;2.60;;;11.00;99.90;;;;;;5068328;28;20599;-72
2023/09/14 03:35:35;;;;;;;4.07;2.53;;;11.00;99.90;;;;;;5056344;28;20690;-72
2023/09/14 03:38:01;;;;;;;3.08;2.50;;;11.00;99.90;;;;;;5064945;28;20044;-72
2023/09/14 03:40:27;;;;;;;3.75;2.30;;;11.00;99.90;;;;;;5061369;28;20395;-71
2023/09/14 03:42:53;;;;;;;3.03;2.10;;;11.00;99.90;;;;;;5065566;28;20056;-72
2023/09/14 03:45:19;;;;;;;5.30;2.58;;;11.00;99.90;;;;;;5068002;28;20032;-72
2023/09/14 03:47:44;;;;;;;7.32;3.10;;;10.90;99.90;;;;;;5066328;28;20056;-72
2023/09/14 03:50:10;;;;;;;4.85;2.90;;;10.80;99.90;;;;;;5062791;28;20072;-72
2023/09/14 03:52:36;;;;;;;5.15;2.72;;;10.80;99.90;;;;;;5038258;28;20093;-72
2023/09/14 03:55:03;;;;;;;10.73;3.30;;;10.80;99.90;;;;;;5058294;28;20040;-72
2023/09/14 03:57:29;;;;;;;5.30;2.80;;;10.80;99.90;;;;;;5069578;28;20052;-72
2023/09/14 03:59:57;;;;;;;3.37;2.20;;;10.80;99.90;;;;;;5066665;28;20047;-72
2023/09/14 04:02:24;;;;;;;4.75;2.42;;;10.70;99.90;;;;;;5068214;28;20056;-71
2023/09/14 04:04:49;;;;;;;4.05;2.25;;;10.70;99.90;;;;;;5067989;28;20056;-72
2023/09/14 04:07:16;;;;;;;4.40;2.42;;;10.70;99.90;;;;;;5068134;28;20616;-72
2023/09/14 04:09:42;;;;;;;4.90;2.80;;;10.70;99.90;;;;;;5065545;28;20074;-72
2023/09/14 04:12:08;;;;;;;4.38;2.58;;;10.70;99.90;;;;;;5060484;28;20036;-72
2023/09/14 04:14:34;;;;;;;6.68;3.03;;;10.70;99.90;;;;;;5065630;28;20059;-72
2023/09/14 04:17:00;;;;;;;5.93;3.30;;;10.70;99.90;;;;;;5064389;28;20048;-72
2023/09/14 04:19:27;;;;;;;6.97;3.47;;;10.70;99.90;;;;;;5042223;28;20036;-72
2023/09/14 04:21:53;;;;;;;4.38;3.40;;;10.70;99.90;;;;;;5066164;28;20066;-72
2023/09/14 04:24:19;;;;;;;6.47;3.47;;;10.70;99.90;;;;;;5066257;28;20044;-72
2023/09/14 04:26:45;;;;;;;4.68;3.70;;;10.70;99.90;;;;;;5059853;28;20044;-72
2023/09/14 04:29:12;;;;;;;8.82;3.83;;;10.70;99.90;;;;;;5067616;28;20044;-72
2023/09/14 04:31:38;;;;;;;5.93;3.15;;;10.70;99.90;;;;;;5080472;28;20036;-72
2023/09/14 04:34:06;;;;;;;5.97;3.30;;;10.70;99.90;;;;;;5064263;28;20153;-72
2023/09/14 04:36:33;;;;;;;4.80;2.88;;;10.70;99.90;;;;;;5058915;28;20048;-72
2023/09/14 04:39:03;;;;;;;3.72;2.80;;;10.70;99.90;;;;;;5064418;28;20040;-72
2023/09/14 04:41:30;;;;;;;3.53;2.67;;;10.60;99.90;;;;;;5058878;28;20547;-72
2023/09/14 04:43:56;;;;;;;4.13;2.42;;;10.60;99.90;;;;;;5064681;28;20679;-72
2023/09/14 04:46:22;;;;;;;3.83;2.58;;;10.60;99.90;;;;;;5057204;28;20080;-72
2023/09/14 04:48:48;;;;;;;4.47;2.58;;;10.60;99.90;;;;;;5061560;28;20048;-73
2023/09/14 04:51:14;;;;;;;3.55;2.30;;;10.60;99.90;;;;;;5066396;28;20048;-73
2023/09/14 04:53:40;;;;;;;6.30;2.38;;;10.60;99.90;;;;;;5059678;28;20070;-73
2023/09/14 04:56:06;;;;;;;3.30;2.28;;;10.60;99.90;;;;;;5056590;28;20036;-72
2023/09/14 04:58:32;;;;;;;2.63;1.90;;;10.60;99.90;;;;;;5078073;28;20123;-73
2023/09/14 05:00:58;;;;;;;2.50;1.75;;;10.60;99.90;;;;;;5068417;28;20131;-73
2023/09/14 05:03:23;;;;;;;1.80;1.70;;;10.60;99.90;;;;;;5086608;28;20057;-73
2023/09/14 05:05:51;;;;;;;1.70;1.60;;;10.60;99.90;;;;;;5082108;28;20032;-73
2023/09/14 05:08:17;;;;;;;2.45;1.60;;;10.60;99.90;;;;;;5065654;28;20116;-73
2023/09/14 05:10:43;;;;;;;1.80;1.70;;;10.60;99.90;;;;;;5068834;28;20487;-73
2023/09/14 05:13:08;;;;;;;3.58;2.17;;;10.50;99.90;;;;;;5050481;28;21226;-73
2023/09/14 05:15:34;;;;;;;2.47;2.15;;;10.50;99.90;;;;;;5065660;28;20051;-72
2023/09/14 05:17:59;;;;;;;4.05;2.08;;;10.50;99.90;;;;;;5069531;28;20044;-70
2023/09/14 05:20:25;;;;;;;2.83;2.03;;;10.50;99.90;;;;;;5078485;28;20097;-72
2023/09/14 05:22:51;;;;;;;2.40;2.08;;;10.40;99.90;;;;;;5069330;28;20054;-72
2023/09/14 05:25:17;;;;;;;2.40;2.10;;;10.50;99.90;;;;;;5073376;28;20040;-71
2023/09/14 05:27:42;;;;;;;5.50;2.70;;;10.50;99.90;;;;;;5075482;28;20084;-72
2023/09/14 05:30:09;;;;;;;3.33;2.63;;;10.50;99.90;;;;;;5081037;28;20036;-71
2023/09/14 05:32:40;;;;;;;2.78;2.10;;;10.60;99.90;;;;;;5064183;28;20047;-71
2023/09/14 05:35:09;;;;;;;4.28;2.35;;;10.60;99.90;;;;;;5067159;28;20039;-71
2023/09/14 05:37:35;;;;;;;3.58;2.47;;;10.50;99.90;;;;;;5068618;28;20071;-71
2023/09/14 05:40:09;;;;;;;4.43;2.90;;;10.60;99.90;;;;;;5072452;28;20032;-71
2023/09/14 05:42:39;;;;;;;5.70;2.97;;;10.60;99.90;;;;;;5066069;28;20048;-71
2023/09/14 05:45:06;;;;;;;6.78;3.13;;;10.60;99.90;;;;;;5067633;28;20059;-71
2023/09/14 05:47:32;;;;;;;6.25;3.20;;;10.60;99.90;;;;;;5070864;28;20052;-71
2023/09/14 05:49:57;;;;;;;5.57;3.30;;;10.60;99.90;;;;;;5062749;28;20036;-72
2023/09/14 05:52:23;;;;;;;7.35;3.95;;;10.70;99.90;;;;;;5068525;28;20082;-72
2023/09/14 05:54:49;;;;;;;5.18;3.80;;;10.70;99.90;;;;;;5068517;28;20048;-72
2023/09/14 05:57:15;;;;;;;5.60;4.18;;;10.70;99.90;;;;;;5073381;28;20036;-72
2023/09/14 05:59:41;;;;;;;8.35;5.15;;;10.80;99.90;;;;;;5073346;28;20052;-72
2023/09/14 06:02:08;;;;;;;7.00;5.00;;;10.80;99.90;;;;;;5070519;28;20130;-72
2023/09/14 06:04:34;;;;;;;8.98;4.75;;;10.90;99.90;;;;;;5055916;28;20059;-72
2023/09/14 06:07:00;;;;;;;7.40;4.82;;;10.90;99.90;;;;;;5078472;28;20102;-72
2023/09/14 06:09:26;;;;;;;7.70;4.72;;;11.00;99.90;;;;;;5065632;28;20056;-72
2023/09/14 06:11:55;;;;;;;7.07;4.80;;;11.10;99.90;;;;;;5060641;28;20036;-72
2023/09/14 06:14:21;;;;;;;9.85;5.28;;;11.10;99.90;;;;;;5069549;28;20048;-72
2023/09/14 06:16:47;;;;;;;5.57;4.70;;;11.20;99.90;;;;;;5068689;28;20037;-72
2023/09/14 06:19:13;;;;;;;7.18;4.70;;;11.30;99.90;;;;;;5088938;28;20101;-72
2023/09/14 06:21:40;;;;;;;11.25;5.50;;;11.30;99.90;;;;;;5069344;28;20045;-71
2023/09/14 06:24:06;;;;;;;10.33;5.40;;;11.40;99.90;;;;;;5072442;28;20084;-72
2023/09/14 06:26:31;;;;;;;8.15;5.38;;;11.40;99.90;;;;;;5065381;28;20047;-72
2023/09/14 06:28:57;;;;;;;9.52;5.72;;;11.50;99.90;;;;;;5070794;28;20093;-72
2023/09/14 06:31:23;;;;;;;12.38;6.47;;;11.60;99.90;;;;;;5068706;28;20052;-72
2023/09/14 06:33:50;;;;;;;7.95;5.53;;;11.60;99.90;;;;;;5060124;28;20044;-72
2023/09/14 06:36:19;;;;;;;11.95;5.90;;;11.70;99.90;;;;;;5072852;28;20040;-72
2023/09/14 06:38:45;;;;;;;11.52;6.00;;;11.80;99.90;;;;;;5061654;28;20061;-72
2023/09/14 06:41:12;;;;;;;9.82;6.07;;;11.90;99.90;;;;;;5062333;28;20202;-72
2023/09/14 06:43:40;;;;;;;9.52;6.10;;;12.00;99.90;;;;;;5062848;28;20070;-72
2023/09/14 06:46:07;;;;;;;12.70;7.03;;;12.10;99.90;;;;;;5079312;28;20096;-72
2023/09/14 06:48:34;;;;;;;11.60;6.20;;;12.10;99.90;;;;;;5058831;28;20079;-78
2023/09/14 06:50:59;;;;;;;9.27;6.30;;;12.20;99.90;;;;;;5083139;28;20189;-71
2023/09/14 06:53:25;;;;;;;9.63;6.75;;;12.30;99.90;;;;;;5071246;28;20138;-72
2023/09/14 06:55:51;;;;;;;11.23;6.00;;;12.40;99.90;;;;;;5087783;28;20130;-72
2023/09/14 06:58:16;;;;;;;9.50;6.00;;;12.40;99.90;;;;;;5067107;28;20040;-69
2023/09/14 07:00:42;;;;;;;12.07;6.22;;;12.50;99.90;;;;;;5059498;28;20036;-71
2023/09/14 07:03:08;;;;;;;11.07;6.28;;;12.60;99.90;;;;;;5066534;28;20044;-71
2023/09/14 07:05:35;;;;;;;10.23;6.45;;;12.70;99.90;;;;;;5069587;28;20174;-71
2023/09/14 07:08:01;;;;;;;15.32;6.30;;;12.70;99.90;;;;;;5070578;28;20403;-74
2023/09/14 07:10:27;;;;;;;12.98;6.05;;;12.80;99.90;;;;;;5071848;28;20124;-73
2023/09/14 07:12:52;;;;;;;10.73;6.13;;;12.90;99.90;;;;;;5089870;28;20530;-73
2023/09/14 07:15:18;;;;;;;11.38;5.93;;;12.90;99.90;;;;;;5090969;28;20039;-73
2023/09/14 07:17:44;;;;;;;17.00;6.75;;;13.00;99.90;;;;;;5073707;28;20044;-74
2023/09/14 07:20:10;;;;;;;16.98;6.95;;;13.00;99.90;;;;;;5063782;28;20499;-74
2023/09/14 07:22:37;;;;;;;17.85;6.13;;;13.10;99.90;;;;;;5084196;28;20079;-73
2023/09/14 07:25:04;;;;;;;12.73;5.85;;;13.20;99.90;;;;;;5091540;28;20032;-74
2023/09/14 07:27:30;;;;;;;10.15;5.43;;;13.20;99.90;;;;;;5086808;28;20091;-73
2023/09/14 07:29:56;;;;;;;8.70;5.45;;;13.30;99.90;;;;;;5063384;28;20544;-73
2023/09/14 07:32:22;;;;;;;8.13;5.10;;;13.30;99.90;;;;;;5067437;28;20051;-74
2023/09/14 07:34:47;;;;;;;13.23;5.38;;;13.40;99.90;;;;;;5089315;28;20044;-72
2023/09/14 07:37:13;;;;;;;12.10;5.30;;;13.50;99.90;;;;;;5087668;28;20051;-72
2023/09/14 07:39:39;;;;;;;12.07;5.00;;;13.60;99.90;;;;;;5068677;28;20048;-71
2023/09/14 07:42:04;;;;;;;13.45;5.70;;;13.70;99.90;;;;;;5072579;28;20060;-70
2023/09/14 07:44:30;;;;;;;13.27;6.07;;;13.80;99.90;;;;;;5069711;28;20036;-74
2023/09/14 07:46:56;;;;;;;12.65;5.68;;;13.80;99.90;;;;;;5065212;28;20135;-74
2023/09/14 07:49:22;;;;;;;9.30;5.40;;;13.90;99.90;;;;;;5068260;28;20054;-75
2023/09/14 07:51:47;;;;;;;12.63;4.63;;;14.10;99.90;;;;;;5066825;28;20047;-74
2023/09/14 07:54:13;;;;;;;9.25;4.22;;;14.10;99.90;;;;;;5067244;28;20051;-73
2023/09/14 07:56:39;;;;;;;7.63;3.65;;;14.20;99.90;;;;;;5043735;28;20040;-73
2023/09/14 07:59:04;;;;;;;10.73;4.28;;;14.30;99.90;;;;;;5072759;28;20455;-76
2023/09/14 08:01:30;;;;;;;6.38;3.70;;;14.40;99.90;;;;;;5072027;28;20044;-74
2023/09/14 08:03:56;;;;;;;8.30;3.40;;;14.40;99.90;;;;;;5071136;28;20142;-72
2023/09/14 08:06:23;;;;;;;7.68;3.40;;;14.50;99.90;;;;;;5070157;28;20051;-73
2023/09/14 08:08:50;;;;;;;8.63;3.15;;;14.60;99.90;;;;;;5068759;28;20047;-73
2023/09/14 08:11:16;;;;;;;8.75;3.22;;;14.60;99.90;;;;;;5071986;28;20384;-72
2023/09/14 08:13:41;;;;;;;7.03;3.13;;;14.70;99.90;;;;;;5084440;28;20041;-72
2023/09/14 08:16:07;;;;;;;9.20;3.10;;;14.70;99.90;;;;;;5071799;28;20068;-72
2023/09/14 08:18:33;;;;;;;10.07;3.35;;;14.80;99.90;;;;;;5071682;28;20048;-72
2023/09/14 08:20:58;;;;;;;8.45;2.72;;;14.90;99.90;;;;;;5061617;28;20044;-72
2023/09/14 08:23:24;;;;;;;9.25;2.67;;;14.90;99.90;;;;;;5069520;28;20123;-72
2023/09/14 08:25:50;;;;;;;8.80;2.42;;;14.90;99.90;;;;;;5089034;28;20039;-71
2023/09/14 08:28:17;;;;;;;7.18;2.25;;;15.00;99.90;;;;;;5071641;28;20044;-71
2023/09/14 08:30:43;;;;;;;;;;;15.10;99.90;;;;;;5065316;28;20071;-71
2023/09/14 08:33:10;;;;;;;6.45;2.45;;;15.10;99.90;;;;;;5055249;28;19924;-72
2023/09/14 08:35:37;;;;;;;12.68;2.67;;;15.20;99.90;;;;;;5077389;28;20066;-71
2023/09/14 08:38:05;;;;;;;9.95;2.60;;;15.30;99.90;;;;;;5087488;28;20486;-71
2023/09/14 08:40:31;;;;;;;8.73;2.22;;;15.40;99.90;;;;;;5063544;28;20483;-71
2023/09/14 08:42:57;;;;;;;6.20;2.30;;;15.50;99.90;;;;;;5062587;28;20440;-69
2023/09/14 08:45:27;;;;;;;8.30;2.33;;;15.50;99.90;;;;;;5089149;28;20075;-72
2023/09/14 08:47:54;;;;;;;5.82;1.92;;;15.60;99.90;;;;;;5071905;28;20123;-72
2023/09/14 08:50:22;;;;;;;6.95;1.80;;;15.70;99.90;;;;;;5070223;28;20138;-73
2023/09/14 08:52:49;;;;;;;6.95;2.10;;;15.80;99.90;;;;;;5055944;28;20430;-73
2023/09/14 08:55:16;;;;;;;6.00;2.07;;;15.80;99.90;;;;;;5068069;28;20101;-72
2023/09/14 08:57:44;;;;;;;7.63;1.90;;;15.90;99.90;;;;;;5072071;28;20063;-73
2023/09/14 09:00:17;;;;;;;9.82;2.50;;;16.00;99.90;;;;;;5071497;28;20652;-80
2023/09/14 09:02:53;;;;;;;7.63;1.80;;;16.00;99.90;;;;;;5070007;28;20097;-73
2023/09/14 09:05:19;;;;;;;7.63;2.17;;;16.10;99.90;;;;;;5068268;28;20051;-75
2023/09/14 09:07:48;;;;;;;5.25;1.80;;;16.20;99.90;;;;;;5065697;28;20094;-74
2023/09/14 09:10:16;;;;;;;7.20;2.25;;;16.20;99.90;;;;;;5070969;28;20054;-74
2023/09/14 09:12:42;;;;;;;8.48;2.10;;;16.30;99.90;;;;;;5057451;28;20110;-75
2023/09/14 09:15:10;;;;;;;8.55;2.20;;;16.40;99.90;;;;;;5083483;28;20059;-75
2023/09/14 09:17:39;;;;;;;;;;;16.40;99.90;;;;;;5062651;28;20059;-69
2023/09/14 09:20:16;;;;;;;6.72;2.22;;;16.50;99.90;;;;;;5086886;28;20442;-71
2023/09/14 09:22:45;;;;;;;;;;;16.60;99.90;;;;;;5075082;28;20074;-72
2023/09/14 09:25:12;;;;;;;7.22;2.08;;;16.60;99.90;;;;;;5080240;28;20007;-78
2023/09/14 09:27:39;;;;;;;7.05;2.05;;;16.60;99.90;;;;;;5066666;28;20048;-71
2023/09/14 09:30:06;;;;;;;9.27;2.42;;;16.70;99.90;;;;;;5084718;28;20044;-76
2023/09/14 09:32:42;;;;;;;;;;;16.80;99.90;;;;;;5061883;28;20533;-77
2023/09/14 09:35:24;;;;;;;7.00;2.10;;;16.90;99.90;;;;;;5085705;28;19920;-75
2023/09/14 09:37:51;;;;;;;9.13;2.38;;;16.90;99.90;;;;;;5060884;28;20502;-72
2023/09/14 09:40:21;;;;;;;11.55;2.40;;;16.90;99.90;;;;;;5065617;28;20055;-72
2023/09/14 09:42:47;;;;;;;9.50;2.47;;;17.10;99.90;;;;;;5046508;28;20116;-69
2023/09/14 09:45:14;;;;;;;6.40;1.83;;;17.10;99.90;;;;;;5081107;28;20146;-72
2023/09/14 09:47:41;;;;;;;7.47;2.30;;;17.20;99.90;;;;;;5093421;28;20487;-73
2023/09/14 09:50:14;;;;;;;8.98;2.30;;;17.30;99.90;;;;;;5092077;28;20040;-73
2023/09/14 09:52:43;;;;;;;7.55;2.00;;;17.40;99.90;;;;;;5085123;28;20032;-73
2023/09/14 09:55:24;;;;;;;7.43;2.25;;;17.50;99.90;;;;;;5083982;28;20047;-73
2023/09/14 09:57:53;;;;;;;6.07;1.88;;;17.60;99.90;;;;;;5073113;28;20086;-73
2023/09/14 10:00:20;;;;;;;9.30;2.60;;;17.60;99.90;;;;;;5074417;28;20133;-72
2023/09/14 10:02:47;;;;;;;5.00;1.88;;;17.70;99.90;;;;;;5082425;28;20634;-72
2023/09/14 10:05:14;;;;;;;8.20;2.40;;;17.70;99.90;;;;;;5068349;28;20164;-72
2023/09/14 10:07:40;;;;;;;6.15;2.22;;;17.70;99.90;;;;;;5071987;28;20044;-73
2023/09/14 10:10:24;;;;;;;8.65;2.35;;;17.60;99.90;;;;;;5061815;28;20056;-72
2023/09/14 10:12:52;;;;;;;6.35;2.30;;;17.70;99.90;;;;;;5085967;28;20032;-72
2023/09/14 10:15:19;;;;;;;6.28;2.30;;;17.80;99.90;;;;;;5067953;28;20055;-73
2023/09/14 10:17:48;;;;;;;10.05;2.40;;;17.80;99.90;;;;;;5071849;28;20044;-73
2023/09/14 10:20:16;;;;;;;7.55;2.33;;;17.90;99.90;;;;;;5073329;28;20477;-72
2023/09/14 10:22:43;;;;;;;6.32;2.10;;;17.90;99.90;;;;;;5072067;28;20051;-72
2023/09/14 10:25:09;;;;;;;7.00;2.10;;;17.90;99.90;;;;;;5090993;28;20048;-71
2023/09/14 10:27:34;;;;;;;9.70;2.30;;;18.00;99.90;;;;;;5087554;28;20028;-72
2023/09/14 10:30:06;;;;;;;10.55;2.13;;;18.10;99.90;;;;;;5063045;28;20048;-72
2023/09/14 10:32:36;;;;;;;7.95;2.60;;;18.20;99.90;;;;;;5090515;28;20044;-72
2023/09/14 10:35:02;;;;;;;7.32;2.05;;;18.30;99.90;;;;;;5076047;28;20106;-71
2023/09/14 10:37:29;;;;;;;10.25;2.67;;;18.30;99.90;;;;;;5069791;28;20050;-73
2023/09/14 10:39:55;;;;;;;6.40;2.03;;;18.30;99.90;;;;;;5069499;28;20660;-74
2023/09/14 10:42:21;;;;;;;6.85;2.30;;;18.20;99.90;;;;;;5071018;28;20048;-74
2023/09/14 10:44:48;;;;;;;7.20;2.28;;;18.10;99.90;;;;;;5064618;28;20054;-76
2023/09/14 10:47:17;;;;;;;7.27;2.20;;;18.10;99.90;;;;;;5087094;28;20495;-74
2023/09/14 10:49:44;;;;;;;5.43;2.20;;;18.10;99.90;;;;;;5076924;28;20310;-75
2023/09/14 10:52:10;;;;;;;;;;;18.10;99.90;;;;;;5072561;28;20051;-74
2023/09/14 10:54:36;;;;;;;8.07;2.30;;;18.20;99.90;;;;;;5090571;28;19920;-75
2023/09/14 10:57:12;;;;;;;9.23;2.45;;;18.30;99.90;;;;;;5071732;28;20040;-75
2023/09/14 10:59:55;;;;;;;8.05;2.20;;;18.40;99.90;;;;;;5067583;28;20051;-75
2023/09/14 11:02:39;;;;;;;6.78;2.83;;;18.50;99.90;;;;;;5071683;28;20044;-75
2023/09/14 11:05:12;;;;;;;4.70;2.10;;;18.60;99.90;;;;;;5062110;28;20142;-75
2023/09/14 11:07:40;;;;;;;6.95;2.53;;;18.70;99.90;;;;;;5064294;28;20059;-75
2023/09/14 11:10:07;;;;;;;8.23;2.45;;;18.80;99.90;;;;;;5070370;28;20059;-75
2023/09/14 11:12:33;;;;;;;7.72;2.70;;;18.80;99.90;;;;;;5068503;28;20072;-76
2023/09/14 11:15:14;;;;;;;8.45;2.67;;;18.70;99.90;;;;;;5062155;28;20044;-73
2023/09/14 11:17:44;;;;;;;8.05;2.50;;;18.70;99.90;;;;;;5066918;28;20051;-72
2023/09/14 11:20:25;;;;;;;6.65;2.10;;;18.60;99.90;;;;;;5071021;28;20044;-73
2023/09/14 11:23:01;;;;;;;7.40;2.22;;;18.50;99.90;;;;;;5068526;28;20047;-74
2023/09/14 11:25:30;;;;;;;6.55;2.55;;;18.50;99.90;;;;;;5066679;28;20121;-74
2023/09/14 11:27:57;;;;;;;5.10;2.30;;;18.50;99.90;;;;;;5064067;28;20457;-73
2023/09/14 11:30:24;;;;;;;8.27;2.77;;;18.50;99.90;;;;;;5088259;28;20043;-74
2023/09/14 11:32:52;;;;;;;7.15;2.13;;;18.50;99.90;;;;;;5063587;28;20059;-74
2023/09/14 11:35:31;;;;;;;7.65;2.55;;;18.60;99.90;;;;;;5069369;28;20040;-74
2023/09/14 11:38:04;;;;;;;6.70;2.38;;;18.80;99.90;;;;;;5068405;28;20535;-73
2023/09/14 11:40:34;;;;;;;6.60;2.40;;;19.10;99.90;;;;;;5059343;28;20036;-73
2023/09/14 11:43:21;;;;;;;7.60;2.30;;;19.20;99.90;;;;;;5049600;28;20044;-74
2023/09/14 11:46:00;;;;;;;6.43;2.38;;;19.40;99.90;;;;;;5072329;28;20127;-73
2023/09/14 11:48:34;;;;;;;7.55;2.88;;;19.50;99.90;;;;;;5089421;28;20086;-73
2023/09/14 11:51:03;;;;;;;5.18;2.25;;;19.60;99.90;;;;;;5066360;28;20043;-73
2023/09/14 11:53:34;;;;;;;8.73;2.40;;;19.70;99.90;;;;;;5089720;28;20441;-73
2023/09/14 11:55:59;;;;;;;5.53;2.25;;;19.80;99.90;;;;;;5070904;28;20105;-72
2023/09/14 11:58:25;;;;;;;7.13;2.80;;;19.90;99.90;;;;;;5071123;28;20040;-73
2023/09/14 12:00:54;;;;;;;7.32;2.08;;;20.00;99.90;;;;;;5070934;28;20154;-73
2023/09/14 12:03:21;;;;;;;6.63;2.47;;;19.90;99.90;;;;;;5089118;28;20573;-73
2023/09/14 12:05:50;;;;;;;5.50;2.35;;;19.80;99.90;;;;;;5086654;28;20089;-73
2023/09/14 12:08:17;;;;;;;7.97;2.40;;;19.70;99.90;;;;;;5058530;28;20166;-73
2023/09/14 12:10:44;;;;;;;;;;;19.50;99.90;;;;;;5071097;28;20052;-73
2023/09/14 12:13:14;;;;;;;8.65;2.45;;;19.40;99.90;;;;;;5071512;28;19916;-73
2023/09/14 12:15:44;;;;;;;6.53;2.42;;;19.30;99.90;;;;;;5088217;28;20047;-73
2023/09/14 12:18:11;;;;;;;7.35;2.40;;;19.20;99.90;;;;;;5086345;28;20130;-72
2023/09/14 12:20:42;;;;;;;5.22;2.30;;;19.30;99.90;;;;;;5068554;28;20052;-73
2023/09/14 12:23:09;;;;;;;5.70;2.17;;;19.30;99.90;;;;;;5087206;28;20138;-72
2023/09/14 12:25:37;;;;;;;8.18;2.50;;;19.40;99.90;;;;;;5045346;28;20055;-73
2023/09/14 12:28:05;;;;;;;8.20;2.30;;;19.40;99.90;;;;;;5074312;28;20119;-73
2023/09/14 12:30:31;;;;;;;8.02;2.20;;;19.60;99.90;;;;;;5068764;28;20051;-73
2023/09/14 12:32:58;;;;;;;6.15;2.50;;;19.80;99.90;;;;;;5067145;28;20044;-74
2023/09/14 12:35:24;;;;;;;9.35;2.65;;;19.90;99.90;;;;;;5086029;28;20104;-71
2023/09/14 12:37:59;;;;;;;7.82;2.60;;;20.00;99.90;;;;;;5068582;28;20397;-71
2023/09/14 12:40:25;;;;;;;7.05;2.30;;;20.20;99.90;;;;;;5072227;28;20505;-71
2023/09/14 12:42:51;;;;;;;5.80;2.60;;;20.30;99.90;;;;;;5070047;28;20452;-71
2023/09/14 12:45:18;;;;;;;7.45;2.40;;;20.40;99.90;;;;;;5052448;28;20123;-73
2023/09/14 12:47:47;;;;;;;5.85;2.20;;;20.50;99.90;;;;;;5069429;28;20036;-72
2023/09/14 12:50:16;;;;;;;7.65;2.88;;;20.60;99.90;;;;;;5064231;28;20071;-73